Time;durP1;ratioP1;P1;durP2;ratioP2;P2;SDS_P1;SDS_P2;PMS_P1;PMS_P2;Temp;Humidity;BMP_temperature;BMP_pressure;BME280_temperature;BME280_humidity;BME280_pressure;Samples;Min_cycle;Max_cycle;Signal;HPM_P1;HPM_P2
2022/03/08 00:00:39;;;;;;;19.70;11.27;;;-0.40;99.90;;;;;;4875773;29;20235;-51
2022/03/08 00:03:05;;;;;;;24.30;11.17;;;-0.40;99.90;;;;;;4875903;29;20197;-50
2022/03/08 00:05:31;;;;;;;24.80;12.00;;;-0.50;99.90;;;;;;4874027;29;20747;-51
2022/03/08 00:07:57;;;;;;;23.33;10.80;;;-0.50;99.90;;;;;;4876086;29;20236;-48
2022/03/08 00:10:22;;;;;;;22.67;11.70;;;-0.50;99.90;;;;;;4876889;29;20600;-48
2022/03/08 00:12:49;;;;;;;22.70;12.10;;;-0.50;99.90;;;;;;4861729;29;20441;-48
2022/03/08 00:15:21;;;;;;;15.37;9.90;;;-0.60;99.90;;;;;;4875537;29;20192;-50
2022/03/08 00:17:48;;;;;;;17.60;10.50;;;-0.60;99.90;;;;;;4874604;29;20433;-52
2022/03/08 00:20:14;;;;;;;19.03;11.23;;;-0.60;99.90;;;;;;4874751;29;20469;-48
2022/03/08 00:22:40;;;;;;;27.40;11.20;;;-0.60;99.90;;;;;;4876452;29;20520;-48
2022/03/08 00:25:07;;;;;;;25.87;11.07;;;-0.60;99.90;;;;;;4875684;29;20461;-48
2022/03/08 00:27:33;;;;;;;23.00;12.10;;;-0.60;99.90;;;;;;4876329;29;20899;-48
2022/03/08 00:29:59;;;;;;;24.47;12.67;;;-0.60;99.90;;;;;;4876139;29;20443;-48
2022/03/08 00:32:25;;;;;;;21.47;10.77;;;-0.60;99.90;;;;;;4862717;29;20220;-48
2022/03/08 00:34:51;;;;;;;21.17;11.30;;;-0.70;99.90;;;;;;4875257;29;20443;-48
2022/03/08 00:37:17;;;;;;;20.10;11.13;;;-0.60;99.90;;;;;;4877857;29;20191;-48
2022/03/08 00:39:42;;;;;;;21.23;11.17;;;-0.70;99.90;;;;;;4877947;29;20974;-48
2022/03/08 00:42:11;;;;;;;18.70;10.50;;;-0.70;99.90;;;;;;4879416;29;20188;-48
2022/03/08 00:44:38;;;;;;;25.53;13.37;;;-0.70;99.90;;;;;;4879125;29;20688;-51
2022/03/08 00:47:05;;;;;;;18.30;10.63;;;-0.60;99.90;;;;;;4881535;29;20465;-51
2022/03/08 00:49:30;;;;;;;17.63;10.33;;;-0.60;99.90;;;;;;4878279;29;20441;-50
2022/03/08 00:51:56;;;;;;;19.97;9.87;;;-0.70;99.90;;;;;;4879036;29;20772;-52
2022/03/08 00:54:21;;;;;;;20.50;10.67;;;-0.70;99.90;;;;;;4878663;29;20193;-51
2022/03/08 00:56:47;;;;;;;22.70;10.60;;;-0.70;99.90;;;;;;4878775;29;20252;-51
2022/03/08 00:59:13;;;;;;;19.97;9.70;;;-0.70;99.90;;;;;;4878553;29;20259;-50
2022/03/08 01:01:38;;;;;;;19.63;10.70;;;-0.70;99.90;;;;;;4878220;29;20596;-50
2022/03/08 01:04:04;;;;;;;17.90;9.30;;;-0.70;99.90;;;;;;4878882;29;20263;-50
2022/03/08 01:06:29;;;;;;;17.93;10.33;;;-0.70;99.90;;;;;;4882276;29;20627;-50
2022/03/08 01:08:55;;;;;;;19.40;10.17;;;-0.80;99.90;;;;;;4878749;29;20240;-51
2022/03/08 01:11:20;;;;;;;19.87;9.90;;;-0.80;99.90;;;;;;4878419;29;20188;-50
2022/03/08 01:13:46;;;;;;;17.00;10.00;;;-0.80;99.90;;;;;;4878496;29;20206;-51
2022/03/08 01:16:11;;;;;;;16.50;9.70;;;-0.80;99.90;;;;;;4879745;29;20187;-50
2022/03/08 01:18:37;;;;;;;19.70;10.10;;;-0.80;99.90;;;;;;4882519;29;20196;-50
2022/03/08 01:21:03;;;;;;;16.07;9.20;;;-0.90;99.90;;;;;;4878300;29;20188;-51
2022/03/08 01:23:29;;;;;;;23.30;11.00;;;-0.90;99.90;;;;;;4880319;29;20276;-50
2022/03/08 01:25:54;;;;;;;24.33;11.20;;;-0.90;99.90;;;;;;4878441;29;20231;-48
2022/03/08 01:28:20;;;;;;;21.13;10.27;;;-1.00;99.90;;;;;;4878612;29;20425;-47
2022/03/08 01:30:46;;;;;;;19.43;10.10;;;-1.00;99.90;;;;;;4878552;29;20292;-50
2022/03/08 01:33:12;;;;;;;16.60;9.70;;;-1.00;99.90;;;;;;4878268;29;20219;-51
2022/03/08 01:35:38;;;;;;;17.40;9.47;;;-1.00;1.00;;;;;;4878037;29;20457;-50
2022/03/08 01:38:03;;;;;;;21.13;9.67;;;-1.00;1.00;;;;;;4879740;29;20187;-50
2022/03/08 01:40:29;;;;;;;17.53;9.70;;;-1.00;1.00;;;;;;4876521;29;20204;-50
2022/03/08 01:42:54;;;;;;;19.80;10.00;;;-0.90;1.00;;;;;;4878421;29;20607;-50
2022/03/08 01:45:23;;;;;;;18.47;8.80;;;-0.90;1.00;;;;;;4878354;29;20267;-50
2022/03/08 01:47:50;;;;;;;18.60;9.60;;;-0.90;1.00;;;;;;4878621;29;20227;-51
2022/03/08 01:50:16;;;;;;;15.20;9.23;;;-0.80;1.00;;;;;;4876005;29;20444;-50
2022/03/08 01:52:43;;;;;;;14.03;8.60;;;-0.90;1.00;;;;;;4881478;29;20472;-50
2022/03/08 01:55:10;;;;;;;10.70;7.30;;;-0.90;1.00;;;;;;4877583;29;20453;-55
2022/03/08 01:57:36;;;;;;;14.33;8.00;;;-0.90;1.00;;;;;;4877744;29;20421;-50
2022/03/08 02:00:06;;;;;;;15.27;8.60;;;-1.00;1.00;;;;;;4877532;29;20571;-50
2022/03/08 02:02:31;;;;;;;15.97;8.50;;;-1.00;1.00;;;;;;4880619;29;20188;-51
2022/03/08 02:04:57;;;;;;;13.97;8.40;;;-1.00;1.00;;;;;;4878131;29;20805;-50
2022/03/08 02:07:24;;;;;;;17.00;8.60;;;-1.10;99.90;;;;;;4884933;29;20246;-48
2022/03/08 02:09:49;;;;;;;17.87;9.63;;;-1.10;1.00;;;;;;4911219;29;20198;-47
2022/03/08 02:12:15;;;;;;;20.53;9.10;;;-1.10;99.90;;;;;;4907821;29;20452;-47
2022/03/08 02:14:42;;;;;;;14.70;8.20;;;-1.10;99.90;;;;;;4905547;29;20706;-49
2022/03/08 02:17:08;;;;;;;16.33;9.03;;;-1.20;99.90;;;;;;4897777;29;20560;-48
2022/03/08 02:19:33;;;;;;;19.63;8.93;;;-1.20;99.90;;;;;;4901758;29;20470;-48
2022/03/08 02:21:59;;;;;;;16.37;8.63;;;-1.20;99.90;;;;;;4897382;29;20428;-48
2022/03/08 02:24:24;;;;;;;13.50;8.20;;;-1.20;1.00;;;;;;4900629;29;20199;-48
2022/03/08 02:26:51;;;;;;;14.97;8.40;;;-1.20;99.90;;;;;;4905420;29;20227;-50
2022/03/08 02:29:17;;;;;;;15.70;8.60;;;-1.30;99.90;;;;;;4904763;29;20187;-49
2022/03/08 02:31:42;;;;;;;15.23;8.07;;;-1.30;99.90;;;;;;4898438;29;20459;-49
2022/03/08 02:34:08;;;;;;;22.10;9.53;;;-1.40;99.90;;;;;;4904655;29;20549;-49
2022/03/08 02:36:35;;;;;;;15.97;9.00;;;-1.40;1.00;;;;;;4897133;29;20246;-49
2022/03/08 02:39:00;;;;;;;17.53;8.70;;;-1.40;1.00;;;;;;4899893;29;20262;-49
2022/03/08 02:41:26;;;;;;;16.60;10.00;;;-1.40;1.00;;;;;;4904719;29;20455;-49
2022/03/08 02:43:51;;;;;;;19.70;9.80;;;-1.40;1.00;;;;;;4904637;29;20191;-49
2022/03/08 02:46:17;;;;;;;13.83;8.50;;;-1.40;1.00;;;;;;4899629;29;20199;-49
2022/03/08 02:48:42;;;;;;;20.03;9.10;;;-1.40;1.00;;;;;;4896273;29;20184;-49
2022/03/08 02:51:08;;;;;;;17.07;9.20;;;-1.50;1.00;;;;;;4896408;29;20657;-49
2022/03/08 02:53:34;;;;;;;17.27;9.47;;;-1.50;1.00;;;;;;4899120;29;20725;-49
2022/03/08 02:55:59;;;;;;;18.03;9.00;;;-1.50;1.00;;;;;;4897427;29;20187;-49
2022/03/08 02:58:25;;;;;;;16.80;9.40;;;-1.50;1.00;;;;;;4904705;29;20584;-50
2022/03/08 03:00:51;;;;;;;16.63;8.50;;;-1.50;1.00;;;;;;4898486;29;20192;-49
2022/03/08 03:03:16;;;;;;;17.17;9.93;;;-1.50;1.00;;;;;;4904057;29;20271;-51
2022/03/08 03:05:42;;;;;;;16.20;9.40;;;-1.50;1.00;;;;;;4909165;29;20192;-53
2022/03/08 03:08:08;;;;;;;19.27;9.00;;;-1.50;1.00;;;;;;4898951;29;20602;-52
2022/03/08 03:10:34;;;;;;;18.77;9.73;;;-1.50;1.00;;;;;;4894244;29;20202;-51
2022/03/08 03:12:59;;;;;;;19.40;9.60;;;-1.50;1.00;;;;;;4894749;29;20802;-55
2022/03/08 03:15:27;;;;;;;18.03;9.30;;;-1.60;1.00;;;;;;4896189;29;20576;-51
2022/03/08 03:17:53;;;;;;;24.77;9.87;;;-1.60;1.00;;;;;;4896876;29;20211;-51
2022/03/08 03:20:20;;;;;;;27.07;10.13;;;-1.50;1.00;;;;;;4893084;29;20522;-51
2022/03/08 03:22:47;;;;;;;16.20;9.53;;;-1.60;1.00;;;;;;4896002;29;20198;-52
2022/03/08 03:25:14;;;;;;;18.23;9.77;;;-1.60;1.00;;;;;;4895633;29;20564;-51
2022/03/08 03:27:40;;;;;;;20.50;10.60;;;-1.60;1.00;;;;;;4894315;29;20539;-52
2022/03/08 03:30:09;;;;;;;20.33;10.50;;;-1.70;1.00;;;;;;4894407;29;20476;-50
2022/03/08 03:32:35;;;;;;;17.63;10.90;;;-1.70;1.00;;;;;;4894331;29;20848;-51
2022/03/08 03:35:00;;;;;;;20.90;10.93;;;-1.70;1.00;;;;;;4896722;29;20440;-51
2022/03/08 03:37:27;;;;;;;17.97;10.10;;;-1.70;1.00;;;;;;4895100;29;20443;-51
2022/03/08 03:39:53;;;;;;;18.30;10.10;;;-1.70;1.00;;;;;;4895870;29;20310;-51
2022/03/08 03:42:18;;;;;;;19.23;10.60;;;-1.70;1.00;;;;;;4894808;29;20499;-50
2022/03/08 03:44:44;;;;;;;21.87;11.30;;;-1.70;1.00;;;;;;4879580;29;20219;-52
2022/03/08 03:47:10;;;;;;;23.13;10.70;;;-1.70;1.00;;;;;;4895113;29;20473;-54
2022/03/08 03:49:35;;;;;;;22.37;11.97;;;-1.70;1.00;;;;;;4894608;29;20187;-51
2022/03/08 03:52:01;;;;;;;22.70;12.53;;;-1.70;16.50;;;;;;4896905;29;20191;-51
2022/03/08 03:54:27;;;;;;;19.67;11.10;;;-1.70;1.30;;;;;;4895950;29;20652;-51
2022/03/08 03:56:52;;;;;;;25.73;11.00;;;-1.70;16.90;;;;;;4894719;29;20440;-56
2022/03/08 03:59:18;;;;;;;17.57;10.83;;;-1.70;52.40;;;;;;4894490;29;20212;-51
2022/03/08 04:01:44;;;;;;;18.97;10.27;;;-1.70;94.50;;;;;;4894555;29;20638;-53
2022/03/08 04:04:09;;;;;;;19.60;9.70;;;-1.70;26.50;;;;;;4894859;29;20216;-51
2022/03/08 04:06:35;;;;;;;20.87;10.27;;;-1.70;1.00;;;;;;4894159;29;20183;-51
2022/03/08 04:09:03;;;;;;;18.27;10.30;;;-1.70;1.00;;;;;;4894409;29;20706;-55
2022/03/08 04:11:28;;;;;;;20.47;11.33;;;-1.80;1.00;;;;;;4894232;29;20442;-51
2022/03/08 04:13:54;;;;;;;21.83;12.47;;;-1.80;1.00;;;;;;4896696;29;20428;-51
2022/03/08 04:16:19;;;;;;;26.30;11.57;;;-1.80;1.00;;;;;;4901524;29;20548;-51
2022/03/08 04:18:45;;;;;;;22.23;12.53;;;-1.90;1.00;;;;;;4894411;29;20195;-51
2022/03/08 04:21:11;;;;;;;20.47;11.17;;;-1.90;1.00;;;;;;4893665;29;20180;-51
2022/03/08 04:23:36;;;;;;;20.50;10.97;;;-2.00;99.90;;;;;;4894029;29;20195;-52
2022/03/08 04:26:02;;;;;;;21.43;12.20;;;-2.00;99.90;;;;;;4893957;29;20191;-49
2022/03/08 04:28:27;;;;;;;20.17;11.57;;;-2.00;99.90;;;;;;4893825;29;20184;-48
2022/03/08 04:30:53;;;;;;;19.30;10.97;;;-1.90;99.90;;;;;;4894200;29;20333;-51
2022/03/08 04:33:18;;;;;;;20.37;11.10;;;-1.90;99.90;;;;;;4894281;29;20282;-50
2022/03/08 04:35:44;;;;;;;19.07;10.50;;;-1.90;99.90;;;;;;4894739;29;20386;-51
2022/03/08 04:38:10;;;;;;;20.30;11.37;;;-1.90;99.90;;;;;;4895318;29;20182;-51
2022/03/08 04:40:35;;;;;;;21.10;11.73;;;-2.00;99.90;;;;;;4894029;29;20211;-49
2022/03/08 04:43:01;;;;;;;21.30;12.67;;;-2.00;99.90;;;;;;4895579;29;20561;-49
2022/03/08 04:45:26;;;;;;;21.23;11.50;;;-2.00;99.90;;;;;;4894578;29;20176;-49
2022/03/08 04:47:52;;;;;;;26.77;13.03;;;-2.00;99.90;;;;;;4894227;29;20209;-61
2022/03/08 04:50:18;;;;;;;24.23;12.73;;;-2.00;99.90;;;;;;4894292;29;20648;-49
2022/03/08 04:52:45;;;;;;;25.07;12.77;;;-2.00;99.90;;;;;;4894541;29;20203;-49
2022/03/08 04:55:11;;;;;;;19.60;10.97;;;-2.00;99.90;;;;;;4894366;29;20203;-49
2022/03/08 04:57:37;;;;;;;23.93;11.90;;;-2.00;99.90;;;;;;4894159;29;20424;-49
2022/03/08 05:00:06;;;;;;;20.93;11.33;;;-2.00;99.90;;;;;;4897622;29;20486;-49
2022/03/08 05:02:31;;;;;;;21.70;11.67;;;-2.00;99.90;;;;;;4889943;29;20210;-49
2022/03/08 05:04:57;;;;;;;21.87;11.77;;;-2.00;99.90;;;;;;4893837;29;20435;-49
2022/03/08 05:07:22;;;;;;;20.50;12.00;;;-2.00;99.90;;;;;;4894210;29;20239;-51
2022/03/08 05:09:48;;;;;;;21.20;12.50;;;-2.00;99.90;;;;;;4893841;29;20191;-51
2022/03/08 05:12:14;;;;;;;20.97;11.80;;;-2.00;99.90;;;;;;4877451;29;20192;-51
2022/03/08 05:14:39;;;;;;;20.10;12.00;;;-2.00;99.90;;;;;;4893502;29;20196;-51
2022/03/08 05:17:05;;;;;;;26.97;11.90;;;-2.00;99.90;;;;;;4893947;29;20191;-50
2022/03/08 05:19:31;;;;;;;24.50;11.60;;;-2.00;1.00;;;;;;4893775;29;20475;-51
2022/03/08 05:21:56;;;;;;;22.20;12.17;;;-2.00;1.00;;;;;;4893920;29;20194;-51
2022/03/08 05:24:22;;;;;;;20.20;11.43;;;-2.00;99.90;;;;;;4893999;29;20195;-51
2022/03/08 05:26:47;;;;;;;25.83;12.17;;;-2.00;99.90;;;;;;4897186;29;20196;-52
2022/03/08 05:29:13;;;;;;;20.03;10.97;;;-2.10;99.90;;;;;;4897405;29;20556;-51
2022/03/08 05:31:38;;;;;;;22.20;11.50;;;-2.10;99.90;;;;;;4897559;29;20188;-51
2022/03/08 05:34:04;;;;;;;25.83;12.10;;;-2.10;99.90;;;;;;4897582;29;20458;-51
2022/03/08 05:36:29;;;;;;;22.63;12.03;;;-2.10;99.90;;;;;;4899649;29;20552;-51
2022/03/08 05:38:55;;;;;;;25.30;14.77;;;-2.20;1.00;;;;;;4898171;29;20204;-55
2022/03/08 05:41:21;;;;;;;20.90;11.50;;;-2.20;1.00;;;;;;4896476;29;20220;-51
2022/03/08 05:43:46;;;;;;;25.93;12.53;;;-2.20;1.00;;;;;;4898079;29;20191;-52
2022/03/08 05:46:12;;;;;;;20.70;12.20;;;-2.10;1.00;;;;;;4897076;29;20271;-51
2022/03/08 05:48:38;;;;;;;23.83;11.73;;;-2.20;99.90;;;;;;4900474;29;20251;-51
2022/03/08 05:51:03;;;;;;;21.63;11.80;;;-2.20;99.90;;;;;;4896276;29;20183;-51
2022/03/08 05:53:29;;;;;;;19.43;11.60;;;-2.20;99.90;;;;;;4897343;29;20435;-51
2022/03/08 05:55:55;;;;;;;20.27;10.80;;;-2.20;99.90;;;;;;4892879;29;20238;-51
2022/03/08 05:58:20;;;;;;;20.67;12.10;;;-2.20;99.90;;;;;;4899593;29;20202;-58
2022/03/08 06:00:46;;;;;;;19.87;11.40;;;-2.10;99.90;;;;;;4896825;29;20285;-51
2022/03/08 06:03:12;;;;;;;23.70;12.07;;;-2.20;99.90;;;;;;4896642;29;20195;-51
2022/03/08 06:05:37;;;;;;;24.80;11.90;;;-2.20;1.00;;;;;;4896695;29;20191;-52
2022/03/08 06:08:04;;;;;;;19.70;11.33;;;-2.20;99.90;;;;;;4896541;29;20234;-51
2022/03/08 06:10:31;;;;;;;21.73;12.20;;;-2.10;99.90;;;;;;4896791;29;20919;-52
2022/03/08 06:12:56;;;;;;;23.00;12.50;;;-2.10;99.90;;;;;;4896653;29;20464;-51
2022/03/08 06:15:22;;;;;;;20.87;12.27;;;-2.10;1.00;;;;;;4898506;29;21261;-53
2022/03/08 06:17:48;;;;;;;20.63;12.57;;;-2.10;99.90;;;;;;4896133;29;20184;-51
2022/03/08 06:20:13;;;;;;;21.20;11.80;;;-2.10;1.00;;;;;;4896450;29;20211;-51
2022/03/08 06:22:39;;;;;;;31.57;11.87;;;-2.00;1.00;;;;;;4896536;29;20623;-51
2022/03/08 06:25:05;;;;;;;20.97;12.10;;;-2.00;1.00;;;;;;4896600;29;20216;-51
2022/03/08 06:27:31;;;;;;;28.50;12.70;;;-2.00;1.00;;;;;;4896291;29;20203;-51
2022/03/08 06:29:56;;;;;;;24.27;12.70;;;-2.00;1.00;;;;;;4898703;29;20845;-52
2022/03/08 06:32:22;;;;;;;26.07;11.87;;;-1.90;1.00;;;;;;4896594;29;20227;-52
2022/03/08 06:34:50;;;;;;;16.40;10.87;;;-1.90;99.90;;;;;;4898492;29;20282;-51
2022/03/08 06:37:16;;;;;;;24.70;13.57;;;-1.90;99.90;;;;;;4897852;29;20191;-49
2022/03/08 06:39:41;;;;;;;21.93;11.50;;;-1.80;99.90;;;;;;4895907;29;20472;-49
2022/03/08 06:42:07;;;;;;;17.93;11.70;;;-1.70;1.00;;;;;;4900245;29;20188;-50
2022/03/08 06:44:33;;;;;;;18.53;11.47;;;-1.30;97.60;;;;;;4895875;29;20274;-56
2022/03/08 06:46:58;;;;;;;20.47;12.37;;;-0.90;1.00;;;;;;4896929;29;20191;-49
2022/03/08 06:49:24;;;;;;;18.23;11.40;;;-0.60;99.90;;;;;;4896153;29;20191;-48
2022/03/08 06:51:50;;;;;;;19.50;10.83;;;-0.40;1.00;;;;;;4896022;29;20270;-49
2022/03/08 06:54:15;;;;;;;19.00;10.93;;;-0.30;1.00;;;;;;4895750;29;20613;-49
2022/03/08 06:56:41;;;;;;;17.40;10.90;;;-0.20;1.00;;;;;;4895661;29;20190;-49
2022/03/08 06:59:07;;;;;;;19.70;11.67;;;-0.10;1.00;;;;;;4898054;29;20667;-49
2022/03/08 07:01:33;;;;;;;21.07;11.10;;;-0.10;99.90;;;;;;4896101;29;20180;-49
2022/03/08 07:03:58;;;;;;;20.37;12.13;;;0.00;1.00;;;;;;4895864;29;20438;-48
2022/03/08 07:06:24;;;;;;;22.37;11.70;;;0.20;1.00;;;;;;4895291;29;20665;-49
2022/03/08 07:08:50;;;;;;;27.73;12.60;;;0.40;99.90;;;;;;4902644;29;20247;-49
2022/03/08 07:11:16;;;;;;;24.77;12.00;;;0.50;99.90;;;;;;4896260;29;20176;-49
2022/03/08 07:13:42;;;;;;;23.03;13.27;;;0.60;99.90;;;;;;4896316;29;20420;-49
2022/03/08 07:16:08;;;;;;;18.63;12.57;;;0.90;99.90;;;;;;4895595;29;20432;-49
2022/03/08 07:18:34;;;;;;;27.33;12.00;;;1.40;99.90;;;;;;4896160;29;20183;-49
2022/03/08 07:21:00;;;;;;;23.60;12.10;;;1.60;91.20;;;;;;4894733;29;20237;-51
2022/03/08 07:23:26;;;;;;;23.23;12.10;;;1.60;91.60;;;;;;4896003;29;20215;-50
2022/03/08 07:25:51;;;;;;;37.13;12.83;;;2.00;99.90;;;;;;4895667;29;20440;-51
2022/03/08 07:28:17;;;;;;;17.30;11.33;;;2.50;99.90;;;;;;4907861;29;20459;-51
2022/03/08 07:30:43;;;;;;;19.60;11.43;;;3.20;66.20;;;;;;4898134;29;20187;-51
2022/03/08 07:33:08;;;;;;;20.33;11.20;;;3.50;1.00;;;;;;4901190;29;20315;-51
2022/03/08 07:35:34;;;;;;;20.63;9.07;;;3.80;1.00;;;;;;4894621;29;20191;-51
2022/03/08 07:37:59;;;;;;;20.00;10.20;;;4.00;1.00;;;;;;4895554;29;20194;-51
2022/03/08 07:40:25;;;;;;;22.03;8.20;;;4.00;1.00;;;;;;4895843;29;20362;-51
2022/03/08 07:42:51;;;;;;;17.50;8.17;;;4.10;1.00;;;;;;4895148;29;20240;-51
2022/03/08 07:45:16;;;;;;;17.60;7.60;;;4.40;1.00;;;;;;4896072;29;20219;-51
2022/03/08 07:47:42;;;;;;;13.30;7.33;;;5.00;1.00;;;;;;4895570;29;20179;-51
2022/03/08 07:50:08;;;;;;;12.00;5.90;;;6.00;1.00;;;;;;4895345;29;20816;-51
2022/03/08 07:52:33;;;;;;;11.77;6.53;;;6.80;1.00;;;;;;4895945;29;20638;-51
2022/03/08 07:54:59;;;;;;;14.93;6.63;;;7.40;1.00;;;;;;4897240;29;20436;-51
2022/03/08 07:57:25;;;;;;;13.20;6.10;;;8.20;1.00;;;;;;4895248;29;20275;-51
2022/03/08 07:59:51;;;;;;;15.87;5.63;;;8.70;1.00;;;;;;4895424;29;20332;-51
2022/03/08 08:02:18;;;;;;;13.73;5.80;;;9.20;1.00;;;;;;4898632;29;20508;-55
2022/03/08 08:04:43;;;;;;;15.30;6.40;;;10.00;1.00;;;;;;4900108;29;20192;-51
2022/03/08 08:07:09;;;;;;;11.80;6.20;;;10.60;1.00;;;;;;4896586;29;20435;-51
2022/03/08 08:09:35;;;;;;;13.00;5.80;;;10.90;1.00;;;;;;4878439;29;20307;-51
2022/03/08 08:12:00;;;;;;;10.17;5.30;;;11.20;1.00;;;;;;4895281;29;20207;-58
2022/03/08 08:14:26;;;;;;;10.70;4.90;;;11.40;1.00;;;;;;4911565;29;20186;-51
2022/03/08 08:16:51;;;;;;;8.77;4.73;;;11.70;1.00;;;;;;4903252;29;20650;-52
2022/03/08 08:19:17;;;;;;;15.20;5.30;;;11.80;1.00;;;;;;4912963;29;20203;-50
2022/03/08 08:21:43;;;;;;;10.87;5.43;;;11.60;1.00;;;;;;4914091;29;20245;-51
2022/03/08 08:24:09;;;;;;;6.27;4.70;;;11.60;1.00;;;;;;4907954;29;20227;-52
2022/03/08 08:26:34;;;;;;;15.97;4.50;;;11.80;1.00;;;;;;4896244;29;20469;-51
2022/03/08 08:29:00;;;;;;;7.40;4.60;;;12.10;1.00;;;;;;4881499;29;20541;-52
2022/03/08 08:31:28;;;;;;;6.67;4.40;;;12.50;1.00;;;;;;4894720;29;20230;-50
2022/03/08 08:33:54;;;;;;;9.77;5.37;;;12.60;99.90;;;;;;4898042;29;20172;-51
2022/03/08 08:36:20;;;;;;;10.27;5.40;;;13.00;99.90;;;;;;4901615;29;20489;-51
2022/03/08 08:38:46;;;;;;;6.90;5.10;;;13.40;99.90;;;;;;4914246;29;20225;-51
2022/03/08 08:41:12;;;;;;;10.27;5.20;;;13.50;99.90;;;;;;4899980;29;20188;-51
2022/03/08 08:43:37;;;;;;;12.60;5.37;;;13.30;99.90;;;;;;4894472;29;20446;-51
2022/03/08 08:46:03;;;;;;;6.97;4.50;;;12.50;99.90;;;;;;4910733;29;20186;-51
2022/03/08 08:48:29;;;;;;;10.27;4.40;;;12.20;1.00;;;;;;4903858;29;20942;-51
2022/03/08 08:50:54;;;;;;;8.77;4.83;;;11.90;99.90;;;;;;4895034;29;20199;-51
2022/03/08 08:53:22;;;;;;;8.70;4.50;;;11.90;99.90;;;;;;4895155;29;20649;-51
2022/03/08 08:55:48;;;;;;;8.87;4.17;;;12.20;99.90;;;;;;4898912;29;20182;-51
2022/03/08 08:58:14;;;;;;;10.43;4.73;;;12.30;99.90;;;;;;4895243;29;20428;-50
2022/03/08 09:00:40;;;;;;;31.10;5.67;;;12.50;99.90;;;;;;4911934;29;20931;-51
2022/03/08 09:03:09;;;;;;;22.27;4.37;;;12.60;99.90;;;;;;4916947;29;20247;-51
2022/03/08 09:05:35;;;;;;;14.33;5.17;;;12.70;99.90;;;;;;4917414;29;20197;-51
2022/03/08 09:08:01;;;;;;;9.20;4.27;;;13.10;99.90;;;;;;4917672;29;20475;-51
2022/03/08 09:10:26;;;;;;;7.13;4.33;;;13.30;99.90;;;;;;4905637;29;20781;-50
2022/03/08 09:12:53;;;;;;;14.80;5.07;;;13.00;99.90;;;;;;4898601;29;20199;-50
2022/03/08 09:15:20;;;;;;;6.57;4.30;;;12.00;99.90;;;;;;4909289;29;20187;-55
2022/03/08 09:17:46;;;;;;;9.90;4.47;;;11.70;99.90;;;;;;4917256;29;20919;-52
2022/03/08 09:20:13;;;;;;;4.77;3.80;;;11.30;99.90;;;;;;4907291;29;20507;-51
2022/03/08 09:22:39;;;;;;;7.73;3.83;;;10.70;99.90;;;;;;4898871;29;21024;-51
2022/03/08 09:25:06;;;;;;;7.60;4.13;;;10.60;99.90;;;;;;4906226;29;20463;-52
2022/03/08 09:27:34;;;;;;;5.37;4.50;;;10.60;99.90;;;;;;4915449;29;20430;-54
2022/03/08 09:30:03;;;;;;;8.03;4.53;;;10.50;99.90;;;;;;4905268;29;21225;-54
2022/03/08 09:32:29;;;;;;;6.80;4.00;;;10.30;99.90;;;;;;4900863;29;20949;-52
2022/03/08 09:34:54;;;;;;;11.70;4.20;;;10.30;99.90;;;;;;4916870;29;20583;-51
2022/03/08 09:37:20;;;;;;;6.00;3.93;;;10.60;99.90;;;;;;4917217;29;20293;-51
2022/03/08 09:39:45;;;;;;;6.70;4.30;;;10.50;99.90;;;;;;4917150;29;20235;-51
2022/03/08 09:42:11;;;;;;;9.60;5.50;;;10.30;99.90;;;;;;4916847;29;20598;-51
2022/03/08 09:44:37;;;;;;;8.50;4.33;;;10.20;99.90;;;;;;4911893;29;20230;-51
2022/03/08 09:47:03;;;;;;;9.27;4.70;;;10.20;99.90;;;;;;4898070;29;20678;-51
2022/03/08 09:49:28;;;;;;;16.40;4.37;;;10.20;99.90;;;;;;4903621;29;20222;-51
2022/03/08 09:51:54;;;;;;;6.20;3.60;;;10.20;99.90;;;;;;4916684;29;20483;-51
2022/03/08 09:54:20;;;;;;;9.50;3.30;;;10.10;99.90;;;;;;4916228;29;20191;-51
2022/03/08 09:56:46;;;;;;;7.53;4.00;;;10.30;99.90;;;;;;4905255;29;20245;-51
2022/03/08 09:59:17;;;;;;;9.77;4.40;;;10.20;99.90;;;;;;4897551;29;20475;-50
2022/03/08 10:01:43;;;;;;;12.17;4.00;;;9.80;99.90;;;;;;4898904;29;20519;-51
2022/03/08 10:04:08;;;;;;;8.50;3.90;;;9.70;99.90;;;;;;4902611;29;20443;-51
2022/03/08 10:06:42;;;;;;;4.17;2.80;;;9.60;99.90;;;;;;4906693;29;20906;-51
2022/03/08 10:09:15;;;;;;;7.57;3.20;;;9.50;99.90;;;;;;4902113;29;20232;-51
2022/03/08 10:11:42;;;;;;;5.07;3.30;;;9.70;99.90;;;;;;4904151;29;20434;-51
2022/03/08 10:14:12;;;;;;;9.03;4.13;;;10.00;99.90;;;;;;4916009;29;20466;-51
2022/03/08 10:16:42;;;;;;;11.70;3.93;;;10.30;99.90;;;;;;4904835;29;20885;-51
2022/03/08 10:19:09;;;;;;;6.27;3.73;;;10.50;99.90;;;;;;4912539;29;20503;-52
2022/03/08 10:21:43;;;;;;;3.23;1.97;;;10.80;99.90;;;;;;4916373;29;20412;-53
2022/03/08 10:24:20;;;;;;;5.67;3.20;;;11.00;99.90;;;;;;4898085;29;20515;-51
2022/03/08 10:27:01;;;;;;;5.90;3.63;;;11.00;99.90;;;;;;4901262;29;20431;-51
2022/03/08 10:29:28;;;;;;;4.83;3.53;;;11.00;99.90;;;;;;4902295;29;20434;-51
2022/03/08 10:32:16;;;;;;;6.90;3.50;;;11.10;99.90;;;;;;4897522;29;20833;-51
2022/03/08 10:34:42;;;;;;;4.60;3.20;;;11.20;99.90;;;;;;4897146;29;20455;-51
2022/03/08 10:37:13;;;;;;;4.00;2.17;;;11.20;99.90;;;;;;4896176;29;20448;-50
2022/03/08 10:39:56;;;;;;;4.13;2.17;;;11.10;99.90;;;;;;4898253;29;21121;-51
2022/03/08 10:42:28;;;;;;;5.13;3.40;;;11.00;99.90;;;;;;4896939;29;20495;-51
2022/03/08 10:45:01;;;;;;;6.13;2.60;;;11.10;99.90;;;;;;4897251;29;20448;-50
2022/03/08 10:47:26;;;;;;;3.50;2.33;;;11.40;99.90;;;;;;4896939;29;21025;-51
2022/03/08 10:49:55;;;;;;;2.33;1.90;;;12.10;99.90;;;;;;4897130;29;20526;-50
2022/03/08 10:52:28;;;;;;;3.20;2.30;;;13.00;99.90;;;;;;4900939;29;20194;-50
2022/03/08 10:54:54;;;;;;;3.07;2.63;;;13.70;99.90;;;;;;4915307;29;20482;-51
2022/03/08 10:57:20;;;;;;;3.93;3.30;;;14.40;99.90;;;;;;4903599;29;22035;-50
2022/03/08 10:59:55;;;;;;;9.20;3.33;;;14.90;99.90;;;;;;4902753;29;20222;-54
2022/03/08 11:02:23;;;;;;;5.93;3.20;;;15.40;99.90;;;;;;4915580;29;20266;-51
2022/03/08 11:05:05;;;;;;;6.20;3.33;;;16.60;99.90;;;;;;4914697;29;20772;-52
2022/03/08 11:07:31;;;;;;;5.53;2.80;;;17.50;99.90;;;;;;4909475;29;20475;-51
2022/03/08 11:09:57;;;;;;;6.13;3.30;;;17.90;99.90;;;;;;4895368;29;20454;-51
2022/03/08 11:12:23;;;;;;;7.83;2.80;;;18.10;99.90;;;;;;4896145;29;20615;-51
2022/03/08 11:14:48;;;;;;;6.00;3.00;;;18.60;99.90;;;;;;4896235;29;20270;-50
2022/03/08 11:17:15;;;;;;;5.90;3.90;;;19.20;99.90;;;;;;4879601;29;20557;-51
2022/03/08 11:19:42;;;;;;;9.33;3.07;;;19.20;99.90;;;;;;4896620;29;20228;-51
2022/03/08 11:22:08;;;;;;;5.20;2.63;;;19.10;99.90;;;;;;4897134;29;20427;-50
2022/03/08 11:24:35;;;;;;;4.50;1.93;;;19.20;99.90;;;;;;4879144;29;20972;-51
2022/03/08 11:27:02;;;;;;;6.97;2.83;;;19.30;99.90;;;;;;4896859;29;20187;-51
2022/03/08 11:29:29;;;;;;;6.67;2.50;;;19.50;99.90;;;;;;4896468;29;20940;-51
2022/03/08 11:31:58;;;;;;;5.07;3.00;;;19.40;99.90;;;;;;4894268;29;20456;-51
2022/03/08 11:34:32;;;;;;;4.83;2.37;;;19.10;99.90;;;;;;4896058;29;20812;-51
2022/03/08 11:37:07;;;;;;;4.00;2.40;;;19.30;99.90;;;;;;4895818;29;20532;-50
2022/03/08 11:39:39;;;;;;;5.53;2.57;;;18.60;99.90;;;;;;4895725;29;20554;-51
2022/03/08 11:42:17;;;;;;;2.57;1.90;;;18.80;99.90;;;;;;4896313;29;20432;-50
2022/03/08 11:45:05;;;;;;;3.50;2.00;;;18.90;99.90;;;;;;4895930;29;21321;-52
2022/03/08 11:48:00;;;;;;;2.27;2.07;;;19.20;99.90;;;;;;4880171;29;20420;-49
2022/03/08 11:50:32;;;;;;;6.93;2.10;;;19.70;99.90;;;;;;4895575;29;20550;-52
2022/03/08 11:53:06;;;;;;;8.13;1.90;;;19.60;99.90;;;;;;4914693;29;20556;-51
2022/03/08 11:55:44;;;;;;;2.57;1.97;;;19.80;99.90;;;;;;4914252;29;20433;-51
2022/03/08 11:58:10;;;;;;;4.23;2.07;;;20.10;99.90;;;;;;4895740;29;21074;-51
2022/03/08 12:00:35;;;;;;;3.73;2.30;;;20.30;99.90;;;;;;4895625;29;20470;-51
2022/03/08 12:03:04;;;;;;;4.70;2.40;;;20.00;99.90;;;;;;4895629;29;20405;-50
2022/03/08 12:05:42;;;;;;;4.13;2.30;;;20.10;99.90;;;;;;4895588;29;20180;-51
2022/03/08 12:08:26;;;;;;;3.20;2.57;;;20.20;99.90;;;;;;4885375;29;20488;-51
2022/03/08 12:10:57;;;;;;;5.13;4.63;;;20.30;99.90;;;;;;4878990;29;20436;-51
2022/03/08 12:13:24;;;;;;;4.00;2.60;;;20.40;99.90;;;;;;4905783;29;20473;-53
2022/03/08 12:16:10;;;;;;;2.70;2.20;;;20.00;99.90;;;;;;4914611;29;20392;-58
2022/03/08 12:18:41;;;;;;;2.90;1.90;;;20.00;99.90;;;;;;4903423;29;20455;-51
2022/03/08 12:21:16;;;;;;;1.57;1.47;;;20.00;99.90;;;;;;4894990;29;20471;-51
2022/03/08 12:24:03;;;;;;;3.47;2.00;;;19.70;99.90;;;;;;4909411;29;20442;-51
2022/03/08 12:26:48;;;;;;;3.00;2.27;;;19.50;99.90;;;;;;4913824;29;20447;-51
2022/03/08 12:29:28;;;;;;;7.80;2.80;;;19.60;99.90;;;;;;4914087;29;20881;-50
2022/03/08 12:37:09;;;;;;;3.80;2.30;;;19.80;99.90;;;;;;4904157;29;20803;-52
2022/03/08 12:39:59;;;;;;;3.67;2.53;;;19.60;99.90;;;;;;4894895;29;20820;-54
2022/03/08 12:42:33;;;;;;;5.70;3.00;;;19.30;99.90;;;;;;4897454;29;20432;-52
2022/03/08 12:45:00;;;;;;;3.43;2.80;;;18.80;99.90;;;;;;4914107;29;20407;-52